Time;durP1;ratioP1;P1;durP2;ratioP2;P2;SDS_P1;SDS_P2;PMS_P1;PMS_P2;Temp;Humidity;BMP_temperature;BMP_pressure;BME280_temperature;BME280_humidity;BME280_pressure;Samples;Min_cycle;Max_cycle;Signal;HPM_P1;HPM_P2
2021/05/04 00:00:07;;;;;;;7.83;2.52;;;;;;;4.41;67.80;99244.05;1817274;78;21493;-78
2021/05/04 00:02:35;;;;;;;5.47;2.50;;;;;;;4.41;67.80;99244.05;1817345;79;21053;-79
2021/05/04 00:05:04;;;;;;;6.50;2.60;;;;;;;4.38;67.87;99247.33;1815016;79;21258;-78
2021/05/04 00:07:32;;;;;;;3.80;2.20;;;;;;;4.35;68.25;99249.25;1813034;78;21540;-78
2021/05/04 00:10:00;;;;;;;7.58;3.15;;;;;;;4.35;68.15;99249.25;1812768;79;21061;-77
2021/05/04 00:12:27;;;;;;;8.78;2.95;;;;;;;4.33;68.51;99248.72;1812874;79;21644;-77
2021/05/04 00:14:57;;;;;;;5.20;2.55;;;;;;;4.32;68.61;99252.53;1812963;78;20930;-78
2021/05/04 00:17:24;;;;;;;6.45;3.12;;;;;;;4.30;68.73;99256.08;1812948;79;21159;-77
2021/05/04 00:19:52;;;;;;;4.17;2.40;;;;;;;4.29;69.06;99261.25;1812711;79;21038;-77
2021/05/04 00:22:20;;;;;;;3.80;2.30;;;;;;;4.27;69.11;99259.36;1785802;79;21010;-77
2021/05/04 00:24:47;;;;;;;3.67;2.50;;;;;;;4.26;69.06;99261.27;1813002;79;21049;-77
2021/05/04 00:27:15;;;;;;;6.05;2.47;;;;;;;4.25;68.99;99261.55;1812790;78;21062;-77
2021/05/04 00:29:44;;;;;;;6.40;2.37;;;;;;;4.22;69.14;99260.20;1812680;79;21423;-75
2021/05/04 00:32:11;;;;;;;4.90;2.70;;;;;;;4.22;69.25;99265.63;1815363;76;21577;-74
2021/05/04 00:34:39;;;;;;;4.80;2.80;;;;;;;4.20;69.52;99261.57;1818861;78;21012;-77
2021/05/04 00:37:07;;;;;;;5.03;2.98;;;;;;;4.20;69.52;99261.57;1818871;78;20913;-77
2021/05/04 00:39:37;;;;;;;3.87;2.50;;;;;;;4.20;69.67;99256.95;1818916;78;20917;-76
2021/05/04 00:42:06;;;;;;;5.58;2.95;;;;;;;4.20;69.75;99258.86;1818807;78;21195;-77
2021/05/04 00:44:33;;;;;;;3.25;2.40;;;;;;;4.20;69.75;99265.10;1819034;78;21475;-77
2021/05/04 00:47:01;;;;;;;4.70;2.87;;;;;;;4.18;69.86;99261.04;1818917;78;21566;-75
2021/05/04 00:49:29;;;;;;;5.03;2.80;;;;;;;4.16;70.03;99261.87;1818830;78;21005;-78
2021/05/04 00:51:57;;;;;;;7.87;2.60;;;;;;;4.15;70.18;99262.41;1818865;78;20945;-76
2021/05/04 00:54:24;;;;;;;4.25;2.72;;;;;;;4.14;70.43;99259.98;1819064;78;22265;-76
2021/05/04 00:56:54;;;;;;;4.92;2.95;;;;;;;4.12;70.80;99260.25;1818827;78;20924;-77
2021/05/04 00:59:23;;;;;;;8.18;2.87;;;;;;;4.12;70.93;99256.73;1818956;78;21590;-76
2021/05/04 01:01:54;;;;;;;5.72;2.95;;;;;;;4.11;71.15;99257.82;1791898;78;20941;-77
2021/05/04 01:04:23;;;;;;;4.28;2.85;;;;;;;4.10;70.93;99258.36;1819273;77;21873;-77
2021/05/04 01:06:51;;;;;;;7.80;3.30;;;;;;;4.07;71.18;99258.92;1795685;79;21402;-76
2021/05/04 01:09:20;;;;;;;4.72;2.83;;;;;;;4.06;71.30;99261.37;1750138;82;21048;-83
2021/05/04 01:11:48;;;;;;;5.97;3.15;;;;;;;4.03;71.50;99262.51;1779670;80;20977;-85
2021/05/04 01:14:16;;;;;;;6.45;3.10;;;;;;;4.01;71.64;99266.86;1750191;82;21168;-77
2021/05/04 01:16:49;;;;;;;5.92;2.80;;;;;;;3.97;71.88;99262.53;1780024;80;20926;-76
2021/05/04 01:19:18;;;;;;;5.90;2.67;;;;;;;3.94;72.06;99264.45;1750111;82;21398;-77
2021/05/04 01:21:46;;;;;;;4.65;3.10;;;;;;;3.91;72.29;99256.05;1780002;80;20930;-79
2021/05/04 01:24:14;;;;;;;7.83;3.05;;;;;;;3.89;72.32;99248.73;1750206;82;20967;-80
2021/05/04 01:26:47;;;;;;;7.42;2.42;;;;;;;3.87;72.53;99263.13;1779957;80;21614;-80
2021/05/04 01:29:14;;;;;;;5.28;3.20;;;;;;;3.84;72.96;99270.47;1748504;81;21125;-78
2021/05/04 01:31:43;;;;;;;4.92;3.15;;;;;;;3.82;73.14;99263.14;1779709;80;21369;-79
2021/05/04 01:34:12;;;;;;;4.85;3.05;;;;;;;3.80;73.22;99272.92;1796114;79;21555;-79
2021/05/04 01:36:40;;;;;;;5.47;3.08;;;;;;;3.78;73.14;99274.30;1779834;80;21131;-78
2021/05/04 01:39:09;;;;;;;7.25;3.58;;;;;;;3.74;73.29;99272.68;1796201;78;21635;-78
2021/05/04 01:41:37;;;;;;;5.75;3.33;;;;;;;3.70;73.49;99268.89;1796079;79;21460;-78
2021/05/04 01:44:09;;;;;;;6.45;3.42;;;;;;;3.67;73.85;99275.42;1779938;80;22258;-81
2021/05/04 01:46:38;;;;;;;8.38;3.08;;;;;;;3.64;73.89;99273.53;1796333;79;21489;-81
2021/05/04 01:49:07;;;;;;;5.05;3.15;;;;;;;3.61;74.33;99275.44;1796017;79;20933;-80
2021/05/04 01:51:37;;;;;;;6.25;3.83;;;;;;;3.61;74.29;99277.34;1791290;79;21456;-79
2021/05/04 01:54:05;;;;;;;8.50;3.47;;;;;;;3.60;74.46;99279.78;1779914;80;21441;-81
2021/05/04 01:56:33;;;;;;;5.12;3.35;;;;;;;3.57;74.58;99274.36;1796116;79;21190;-82
2021/05/04 01:59:02;;;;;;;5.87;3.50;;;;;;;3.57;74.77;99277.63;1796109;79;21150;-80
2021/05/04 02:01:30;;;;;;;6.37;3.75;;;;;;;3.54;74.79;99271.39;1779792;80;20978;-81
2021/05/04 02:03:58;;;;;;;8.18;3.52;;;;;;;3.51;75.03;99274.11;1796985;77;21040;-83
2021/05/04 02:06:25;;;;;;;4.72;3.40;;;;;;;3.49;75.05;99276.28;1849090;77;20907;-81
2021/05/04 02:08:53;;;;;;;6.62;3.42;;;;;;;3.46;75.26;99276.87;1849084;77;21240;-82
2021/05/04 02:11:20;;;;;;;7.50;4.40;;;;;;;3.43;75.58;99275.25;1848869;77;21033;-82
2021/05/04 02:13:48;;;;;;;5.80;2.95;;;;;;;3.42;75.79;99276.34;1849019;77;20970;-82
2021/05/04 02:16:16;;;;;;;7.20;3.98;;;;;;;3.41;75.80;99280.14;1848949;77;21119;-84
2021/05/04 02:18:44;;;;;;;8.90;3.70;;;;;;;3.38;75.98;99283.41;1848976;77;20997;-85
2021/05/04 02:21:15;;;;;;;4.92;3.55;;;;;;;3.35;76.24;99280.69;1849003;77;21314;-85
2021/05/04 02:23:43;;;;;;;4.97;3.40;;;;;;;3.35;76.37;99275.27;1848944;77;20949;-85
2021/05/04 02:26:12;;;;;;;4.78;3.45;;;;;;;3.35;76.53;99277.16;1849006;77;20959;-85
2021/05/04 02:28:40;;;;;;;6.05;3.65;;;;;;;3.34;76.68;99274.18;1849045;77;21009;-86
2021/05/04 02:31:08;;;;;;;4.85;3.40;;;;;;;3.34;76.79;99279.06;1847025;77;20993;-85
2021/05/04 02:33:37;;;;;;;6.37;3.37;;;;;;;3.35;76.88;99270.38;1848975;77;22621;-79
2021/05/04 02:36:06;;;;;;;8.98;3.98;;;;;;;3.35;76.92;99277.16;1849024;77;20926;-82
2021/05/04 02:38:34;;;;;;;6.70;3.83;;;;;;;3.36;76.78;99280.15;1849128;77;20926;-83
2021/05/04 02:41:03;;;;;;;7.15;3.25;;;;;;;3.34;77.16;99277.70;1848806;77;21100;-82
2021/05/04 02:43:31;;;;;;;8.88;3.95;;;;;;;3.34;77.08;99279.61;1848977;77;21533;-77
2021/05/04 02:45:58;;;;;;;6.45;3.87;;;;;;;3.31;77.50;99272.83;1849019;77;21066;-79
2021/05/04 02:48:27;;;;;;;5.08;3.30;;;;;;;3.33;77.67;99279.34;1848908;77;20926;-72
2021/05/04 02:50:54;;;;;;;5.37;3.55;;;;;;;3.33;77.71;99280.16;1818725;77;21060;-73
2021/05/04 02:53:22;;;;;;;7.15;3.58;;;;;;;3.34;77.68;99283.13;1848972;77;21168;-73
2021/05/04 02:55:49;;;;;;;7.28;3.62;;;;;;;3.35;77.59;99290.73;1848146;77;21580;-76
2021/05/04 02:58:17;;;;;;;6.08;4.08;;;;;;;3.35;77.78;99277.16;1848795;77;21773;-78
2021/05/04 03:00:45;;;;;;;5.22;3.55;;;;;;;3.36;77.81;99286.39;1849016;77;21446;-73
2021/05/04 03:03:13;;;;;;;7.97;3.62;;;;;;;3.40;77.80;99286.65;1848728;77;21529;-72
2021/05/04 03:05:40;;;;;;;9.05;3.55;;;;;;;3.43;77.82;99290.17;1848778;77;21132;-73
2021/05/04 03:08:08;;;;;;;6.17;3.92;;;;;;;3.46;77.84;99290.98;1849101;77;21179;-83
2021/05/04 03:10:35;;;;;;;6.30;3.80;;;;;;;3.49;77.95;99296.64;1849148;77;22329;-84
2021/05/04 03:13:03;;;;;;;5.92;3.98;;;;;;;3.54;77.82;99295.27;1849138;77;21552;-80
2021/05/04 03:15:31;;;;;;;7.97;4.50;;;;;;;3.58;77.67;99296.34;1849170;77;20990;-84
2021/05/04 03:18:00;;;;;;;6.22;4.20;;;;;;;3.62;77.61;99304.20;1849263;77;20949;-84
2021/05/04 03:20:30;;;;;;;7.28;4.30;;;;;;;3.67;77.49;99302.02;1849469;77;21541;-83
2021/05/04 03:22:59;;;;;;;5.78;3.67;;;;;;;3.72;77.33;99303.36;1848990;77;21444;-79
2021/05/04 03:25:27;;;;;;;7.37;4.22;;;;;;;3.78;77.20;99306.33;1848009;77;20977;-83
2021/05/04 03:27:58;;;;;;;8.15;4.00;;;;;;;3.82;77.06;99306.05;1774717;80;21041;-83
2021/05/04 03:30:26;;;;;;;4.80;3.50;;;;;;;3.87;76.99;99300.59;1815700;79;20938;-82
2021/05/04 03:32:54;;;;;;;11.12;3.85;;;;;;;3.92;76.90;99295.15;1820127;77;20918;-85
2021/05/04 03:35:21;;;;;;;5.85;3.52;;;;;;;3.99;76.78;99305.71;1821321;77;21197;-82
2021/05/04 03:37:49;;;;;;;5.58;3.87;;;;;;;4.06;76.57;99311.62;1758440;81;21582;-77
2021/05/04 03:40:17;;;;;;;6.78;3.85;;;;;;;4.11;76.22;99314.33;1805509;79;20919;-78
2021/05/04 03:42:45;;;;;;;5.50;3.67;;;;;;;4.18;76.11;99314.83;1796403;79;20930;-81
2021/05/04 03:45:13;;;;;;;6.33;3.45;;;;;;;4.24;75.98;99317.79;1780051;80;21052;-85
2021/05/04 03:47:43;;;;;;;6.15;4.08;;;;;;;4.29;75.73;99311.52;1842052;77;21357;-84
2021/05/04 03:50:18;;;;;;;6.87;3.65;;;;;;;4.36;75.74;99313.93;1848802;77;21030;-73
2021/05/04 03:52:46;;;;;;;5.70;3.33;;;;;;;4.43;76.07;99308.45;1848409;77;20997;-76
2021/05/04 03:55:14;;;;;;;7.08;3.52;;;;;;;4.51;75.63;99317.38;1848380;77;21607;-74
2021/05/04 03:57:41;;;;;;;5.15;3.33;;;;;;;4.56;74.97;99320.61;1848407;77;21148;-75
2021/05/04 04:00:11;;;;;;;7.97;3.47;;;;;;;4.61;74.92;99320.03;1848435;77;21249;-73
2021/05/04 04:02:38;;;;;;;7.22;3.67;;;;;;;4.65;74.77;99319.70;1805661;79;21152;-79
2021/05/04 04:05:08;;;;;;;6.50;3.92;;;;;;;4.72;74.54;99318.02;1848636;77;20974;-84
2021/05/04 04:07:37;;;;;;;7.17;4.03;;;;;;;4.77;74.48;99322.06;1806577;79;20931;-83
2021/05/04 04:10:06;;;;;;;5.75;3.72;;;;;;;4.82;74.36;99323.39;1847544;77;21036;-80
2021/05/04 04:12:34;;;;;;;6.83;3.27;;;;;;;4.87;74.12;99326.62;1849174;77;21359;-77
2021/05/04 04:15:03;;;;;;;7.85;3.87;;;;;;;4.91;74.12;99327.14;1849017;77;21120;-72
2021/05/04 04:17:31;;;;;;;6.40;3.62;;;;;;;4.94;73.76;99333.37;1800844;77;20986;-82
2021/05/04 04:19:58;;;;;;;6.55;3.92;;;;;;;4.97;73.78;99331.44;1762716;81;21160;-79
2021/05/04 04:22:26;;;;;;;7.90;3.80;;;;;;;5.02;73.38;99330.59;1792670;80;21143;-79
2021/05/04 04:24:54;;;;;;;8.03;4.25;;;;;;;5.06;73.23;99333.55;1774644;80;21479;-80
2021/05/04 04:27:22;;;;;;;6.35;3.90;;;;;;;5.08;72.88;99333.53;1849122;77;21005;-82
2021/05/04 04:29:51;;;;;;;6.20;3.95;;;;;;;5.09;72.33;99328.91;1786447;79;21187;-78
2021/05/04 04:32:19;;;;;;;7.37;3.65;;;;;;;5.09;72.74;99339.23;1767474;81;21085;-78
2021/05/04 04:34:49;;;;;;;5.70;3.65;;;;;;;5.12;72.77;99331.87;1767566;80;21038;-79
2021/05/04 04:37:17;;;;;;;10.60;3.92;;;;;;;5.19;72.73;99332.35;1767550;81;21314;-78
2021/05/04 04:39:46;;;;;;;7.00;4.28;;;;;;;5.28;72.77;99329.80;1767359;81;20971;-73
2021/05/04 04:42:14;;;;;;;5.80;3.80;;;;;;;5.43;71.37;99333.74;1767422;80;20903;-72
2021/05/04 04:44:41;;;;;;;7.60;4.17;;;;;;;5.43;71.37;99333.74;1766881;81;21722;-75
2021/05/04 04:47:11;;;;;;;5.45;3.67;;;;;;;5.47;71.06;99333.98;1767414;81;21093;-81
2021/05/04 04:49:39;;;;;;;6.33;3.98;;;;;;;5.52;71.07;99338.83;1767388;81;23308;-71
2021/05/04 04:52:07;;;;;;;6.80;4.50;;;;;;;5.60;71.26;99337.39;1784888;79;21521;-75
2021/05/04 04:54:35;;;;;;;8.05;4.03;;;;;;;5.70;70.88;99342.73;1786913;79;21458;-74
2021/05/04 04:57:04;;;;;;;7.12;3.62;;;;;;;5.78;70.51;99337.18;1767262;80;21046;-80
2021/05/04 04:59:33;;;;;;;7.20;4.35;;;;;;;5.84;70.01;99335.47;1767414;80;21145;-77
2021/05/04 05:02:00;;;;;;;6.00;3.87;;;;;;;5.84;70.01;99335.47;1767310;81;21439;-76
2021/05/04 05:04:29;;;;;;;9.20;3.58;;;;;;;6.02;70.12;99347.56;1767289;81;21558;-84
2021/05/04 05:06:57;;;;;;;7.75;4.05;;;;;;;6.02;70.12;99347.56;1766945;80;21058;-79
2021/05/04 05:09:25;;;;;;;7.45;4.33;;;;;;;6.09;69.75;99341.21;1767184;81;21066;-69
2021/05/04 05:11:52;;;;;;;6.03;4.03;;;;;;;6.21;68.75;99343.52;1767261;80;21193;-74
2021/05/04 05:14:21;;;;;;;5.72;3.83;;;;;;;6.27;68.61;99340.44;1767977;79;21416;-76
2021/05/04 05:16:49;;;;;;;6.20;4.20;;;;;;;6.27;68.61;99340.44;1791143;79;21140;-77
2021/05/04 05:19:16;;;;;;;8.48;4.12;;;;;;;6.34;68.55;99336.55;1767364;81;21081;-74
2021/05/04 05:21:46;;;;;;;7.40;4.15;;;;;;;6.42;68.69;99339.41;1790532;79;21477;-74
2021/05/04 05:24:13;;;;;;;8.73;4.17;;;;;;;6.50;68.42;99331.93;1798758;79;21657;-74
2021/05/04 05:26:42;;;;;;;6.35;4.22;;;;;;;6.60;68.34;99332.34;1798954;79;21378;-73
2021/05/04 05:29:09;;;;;;;9.60;4.62;;;;;;;6.70;67.84;99333.56;1798671;79;21133;-77
2021/05/04 05:31:37;;;;;;;6.90;4.78;;;;;;;6.80;67.40;99338.87;1797818;79;20942;-72
2021/05/04 05:34:05;;;;;;;7.30;4.47;;;;;;;6.90;67.56;99335.17;1757242;81;21527;-75
2021/05/04 05:36:32;;;;;;;7.37;3.87;;;;;;;7.00;67.45;99336.91;1767208;81;21064;-83
2021/05/04 05:39:00;;;;;;;6.47;4.42;;;;;;;7.11;66.56;99337.81;1736801;82;21190;-74
2021/05/04 05:41:28;;;;;;;5.85;4.35;;;;;;;7.21;66.37;99336.28;1767261;81;21168;-78
2021/05/04 05:43:56;;;;;;;6.50;4.00;;;;;;;7.29;65.42;99341.06;1766912;81;21158;-77
2021/05/04 05:46:23;;;;;;;6.97;4.20;;;;;;;7.35;65.54;99339.05;1767262;81;20933;-76
2021/05/04 05:48:53;;;;;;;6.60;4.42;;;;;;;7.42;65.64;99338.12;1767198;81;21119;-78
2021/05/04 05:51:21;;;;;;;7.65;4.12;;;;;;;7.48;64.71;99337.47;1767238;81;23206;-71
2021/05/04 05:53:49;;;;;;;7.42;4.67;;;;;;;7.53;64.10;99326.42;1767241;81;21389;-75
2021/05/04 05:56:17;;;;;;;6.58;3.87;;;;;;;7.58;63.93;99328.52;1767332;81;20941;-72
2021/05/04 05:58:44;;;;;;;9.15;4.20;;;;;;;7.67;63.46;99329.19;1767226;81;21075;-73
2021/05/04 06:01:12;;;;;;;8.08;4.30;;;;;;;7.75;62.75;99318.37;1767193;81;21186;-78
2021/05/04 06:03:40;;;;;;;7.65;4.40;;;;;;;7.79;62.36;99330.31;1767082;80;21343;-72
2021/05/04 06:06:09;;;;;;;4.95;3.35;;;;;;;7.85;62.62;99320.09;1770551;79;21175;-74
2021/05/04 06:08:38;;;;;;;6.97;4.03;;;;;;;7.96;61.80;99331.08;1789475;79;21572;-78
2021/05/04 06:11:05;;;;;;;5.17;3.45;;;;;;;8.12;61.78;99340.58;1767104;81;21033;-69
2021/05/04 06:13:35;;;;;;;5.78;3.30;;;;;;;8.29;61.03;99340.77;1767083;81;20954;-80
2021/05/04 06:16:07;;;;;;;5.53;3.52;;;;;;;8.35;58.79;99331.93;1767200;81;20995;-73
2021/05/04 06:18:34;;;;;;;5.65;3.02;;;;;;;8.40;59.65;99334.56;1767360;81;20915;-78
2021/05/04 06:21:04;;;;;;;4.87;3.45;;;;;;;8.47;59.13;99328.11;1767009;81;20910;-78
2021/05/04 06:23:31;;;;;;;4.62;3.22;;;;;;;8.49;59.44;99334.09;1767261;81;21107;-77
2021/05/04 06:26:00;;;;;;;9.98;3.75;;;;;;;8.49;58.47;99339.56;1767360;81;21619;-71
2021/05/04 06:28:28;;;;;;;9.33;3.12;;;;;;;8.48;59.85;99354.91;1767318;81;22089;-81
2021/05/04 06:30:55;;;;;;;5.80;3.75;;;;;;;8.44;58.21;99335.56;1767147;81;21137;-77
2021/05/04 06:33:23;;;;;;;5.75;3.60;;;;;;;8.33;58.94;99365.61;1763136;81;21084;-79
2021/05/04 06:35:51;;;;;;;9.50;3.90;;;;;;;8.22;59.81;99360.06;1750978;80;21132;-72
2021/05/04 06:38:18;;;;;;;6.40;3.95;;;;;;;8.19;60.61;99361.48;1796185;80;21170;-76
2021/05/04 06:40:48;;;;;;;5.87;4.22;;;;;;;8.29;60.83;99361.84;1796121;79;21374;-73
2021/05/04 06:43:16;;;;;;;9.40;4.05;;;;;;;8.41;60.26;99364.90;1795850;80;20949;-74
2021/05/04 06:45:44;;;;;;;9.38;3.87;;;;;;;8.42;59.67;99365.71;1795814;80;21047;-79
2021/05/04 06:48:11;;;;;;;5.35;3.75;;;;;;;8.41;60.37;99369.56;1779479;80;21124;-80
2021/05/04 06:50:39;;;;;;;5.95;4.22;;;;;;;8.41;60.71;99368.19;1796289;79;21107;-73
2021/05/04 06:53:06;;;;;;;6.80;4.28;;;;;;;8.42;60.80;99370.63;1786471;79;21814;-79
2021/05/04 06:55:36;;;;;;;11.25;4.40;;;;;;;8.40;61.03;99374.78;1848896;77;20930;-70
2021/05/04 06:58:04;;;;;;;7.87;5.37;;;;;;;8.34;60.99;99368.60;1841735;77;21120;-70
2021/05/04 07:00:32;;;;;;;11.88;4.22;;;;;;;8.30;60.87;99373.03;1843819;77;21164;-68
2021/05/04 07:03:03;;;;;;;7.33;3.90;;;;;;;8.34;61.61;99373.27;1822535;77;22127;-68
2021/05/04 07:05:31;;;;;;;6.97;3.83;;;;;;;8.45;60.73;99374.11;1819900;77;21154;-68
2021/05/04 07:07:59;;;;;;;6.50;4.03;;;;;;;8.59;60.28;99371.36;1829039;77;21611;-82
2021/05/04 07:10:28;;;;;;;17.62;8.10;;;;;;;8.66;60.54;99366.28;1815895;79;21164;-71
2021/05/04 07:12:56;;;;;;;17.05;8.03;;;;;;;8.75;60.14;99382.20;1827501;77;21916;-70
2021/05/04 07:15:25;;;;;;;6.95;3.62;;;;;;;8.85;60.41;99385.27;1816025;79;21469;-70
2021/05/04 07:17:54;;;;;;;8.05;4.00;;;;;;;8.89;58.44;99391.75;1832416;77;21481;-69
2021/05/04 07:20:22;;;;;;;5.03;3.67;;;;;;;8.86;59.35;99392.36;1849245;77;21108;-69
2021/05/04 07:22:55;;;;;;;7.83;4.80;;;;;;;8.91;58.94;99404.02;1806537;79;20970;-70
2021/05/04 07:25:23;;;;;;;5.60;4.08;;;;;;;8.98;58.35;99397.30;1849408;77;21433;-71
2021/05/04 07:27:53;;;;;;;4.75;3.47;;;;;;;8.96;57.44;99400.91;1806311;79;21199;-69
2021/05/04 07:30:21;;;;;;;8.20;4.12;;;;;;;8.86;57.00;99392.36;1848532;77;21192;-71
2021/05/04 07:32:48;;;;;;;5.03;3.52;;;;;;;8.85;57.36;99402.50;1805615;79;20997;-69
2021/05/04 07:35:16;;;;;;;4.97;3.47;;;;;;;8.84;57.45;99392.67;1848616;77;21093;-69
2021/05/04 07:37:43;;;;;;;5.80;3.62;;;;;;;8.87;57.33;99403.56;1805707;79;20994;-69
2021/05/04 07:40:12;;;;;;;5.17;3.35;;;;;;;9.02;56.84;99396.94;1848225;77;21152;-70
2021/05/04 07:42:39;;;;;;;6.80;2.98;;;;;;;9.28;56.62;99396.56;1848442;77;21385;-71
2021/05/04 07:45:09;;;;;;;7.45;3.30;;;;;;;9.45;53.94;99408.22;1795223;79;20930;-70
2021/05/04 07:47:37;;;;;;;7.40;3.30;;;;;;;9.54;54.70;99407.16;1796470;79;21462;-71
2021/05/04 07:50:09;;;;;;;5.92;3.15;;;;;;;9.69;55.24;99417.49;1779952;80;21044;-71
2021/05/04 07:52:36;;;;;;;5.80;3.47;;;;;;;9.80;52.58;99399.10;1796528;78;21493;-71
2021/05/04 07:55:06;;;;;;;4.60;3.35;;;;;;;9.87;52.21;99396.69;1791630;79;21188;-71
2021/05/04 07:57:34;;;;;;;8.58;3.40;;;;;;;10.00;51.76;99397.73;1796365;79;20949;-71
2021/05/04 08:00:05;;;;;;;4.05;2.70;;;;;;;10.25;51.47;99404.48;1796349;79;20984;-71
2021/05/04 08:02:34;;;;;;;8.95;2.87;;;;;;;10.50;50.94;99398.81;1779274;80;21065;-71
2021/05/04 08:05:02;;;;;;;5.50;3.08;;;;;;;10.62;51.19;99396.83;1796483;79;20996;-71
2021/05/04 08:07:30;;;;;;;5.28;3.00;;;;;;;10.79;50.77;99391.37;1796384;79;21256;-70
2021/05/04 08:09:57;;;;;;;5.33;3.37;;;;;;;11.05;50.18;99392.19;1796416;79;21483;-71
2021/05/04 08:12:25;;;;;;;5.60;3.17;;;;;;;11.28;49.84;99392.03;1780062;80;21493;-71
2021/05/04 08:14:53;;;;;;;6.22;4.40;;;;;;;11.25;48.58;99394.86;1796352;78;21523;-71
2021/05/04 08:17:23;;;;;;;6.05;2.95;;;;;;;11.03;49.65;99397.77;1779992;80;20961;-71
2021/05/04 08:19:50;;;;;;;9.15;3.08;;;;;;;10.79;49.52;99398.24;1796352;79;21346;-71
2021/05/04 08:22:18;;;;;;;6.10;2.90;;;;;;;10.37;50.27;99398.41;1796307;79;21562;-71
2021/05/04 08:24:46;;;;;;;4.42;2.95;;;;;;;10.13;51.73;99396.82;1796374;79;20933;-71
2021/05/04 08:27:14;;;;;;;6.53;3.67;;;;;;;10.08;53.21;99396.16;1779869;80;21068;-71
2021/05/04 08:29:41;;;;;;;4.37;3.33;;;;;;;10.15;53.29;99396.51;1796366;79;21527;-71
2021/05/04 08:32:10;;;;;;;4.78;3.52;;;;;;;10.29;52.20;99398.61;1796304;79;21359;-71
2021/05/04 08:34:38;;;;;;;9.18;3.35;;;;;;;10.35;53.12;99398.72;1796282;78;21583;-71
2021/05/04 08:37:06;;;;;;;5.58;3.00;;;;;;;10.35;52.86;99399.28;1779929;80;20922;-71
2021/05/04 08:39:34;;;;;;;6.28;3.05;;;;;;;10.24;51.31;99401.50;1802008;77;21556;-73
2021/05/04 08:42:01;;;;;;;6.72;3.27;;;;;;;9.99;51.38;99404.89;1809676;77;20978;-71
2021/05/04 08:44:30;;;;;;;3.98;2.95;;;;;;;9.72;52.51;99408.64;1762824;81;21376;-71
2021/05/04 08:46:59;;;;;;;4.75;2.70;;;;;;;9.52;52.92;99400.37;1791516;80;21199;-70
2021/05/04 08:49:29;;;;;;;4.90;3.10;;;;;;;9.42;53.87;99391.03;1764522;80;21090;-71
2021/05/04 08:51:57;;;;;;;9.43;3.17;;;;;;;9.36;54.26;99395.83;1792626;80;21068;-71
2021/05/04 08:54:24;;;;;;;5.05;3.30;;;;;;;9.41;53.94;99400.37;1792665;80;21069;-71
2021/05/04 08:56:52;;;;;;;7.05;3.20;;;;;;;9.53;53.59;99405.54;1792709;80;21193;-71
2021/05/04 08:59:19;;;;;;;7.45;3.17;;;;;;;9.70;52.90;99409.52;1792546;80;21128;-71
2021/05/04 09:01:47;;;;;;;9.28;3.08;;;;;;;9.85;53.38;99394.02;1792673;80;21504;-71
2021/05/04 09:04:37;;;;;;;6.67;2.60;;;;;;;10.04;52.44;99397.91;1792659;80;20934;-71
2021/05/04 09:07:25;;;;;;;3.98;2.58;;;;;;;10.28;50.49;99391.51;1792763;80;21092;-71
2021/05/04 09:12:48;;;;;;;13.32;5.95;;;;;;;10.43;48.18;99392.42;1774694;80;21594;-71
2021/05/04 09:21:31;;;;;;;5.85;2.15;;;;;;;10.67;51.64;99378.84;1849256;77;21112;-70
2021/05/04 09:24:25;;;;;;;7.00;3.17;;;;;;;11.15;48.59;99376.77;1873651;76;22566;-71
2021/05/04 09:27:03;;;;;;;2.52;1.92;;;;;;;11.29;47.03;99393.65;1841692;78;20937;-71
2021/05/04 09:29:35;;;;;;;3.42;1.85;;;;;;;11.54;45.30;99392.83;1841703;77;21531;-70
2021/05/04 09:32:24;;;;;;;4.03;2.17;;;;;;;11.65;44.13;99391.32;1841637;77;20949;-70
2021/05/04 09:34:57;;;;;;;3.22;2.00;;;;;;;11.69;45.68;99393.66;1841671;78;20972;-71
2021/05/04 09:37:33;;;;;;;6.47;2.85;;;;;;;11.83;46.34;99395.69;1841828;77;21470;-70
2021/05/04 09:40:20;;;;;;;8.30;2.50;;;;;;;11.82;44.46;99402.32;1841714;78;20968;-70
2021/05/04 09:43:08;;;;;;;5.90;2.60;;;;;;;11.85;45.21;99392.61;1841424;78;23426;-70
2021/05/04 09:45:56;;;;;;;5.37;2.20;;;;;;;12.05;45.62;99395.22;1841470;78;20940;-70
2021/05/04 09:48:27;;;;;;;4.53;2.10;;;;;;;12.17;43.63;99394.74;1841764;77;20905;-70
2021/05/04 09:51:11;;;;;;;3.87;2.12;;;;;;;11.94;44.19;99387.89;1841538;78;21102;-70
2021/05/04 09:53:46;;;;;;;;;;;;;;;12.12;44.69;99376.26;1844528;78;21054;-70
2021/05/04 09:56:13;;;;;;;3.55;1.90;;;;;;;12.58;42.10;99362.97;1838764;78;21368;-70
2021/05/04 09:58:45;;;;;;;3.27;1.85;;;;;;;13.01;42.62;99366.78;1841689;78;21554;-70
2021/05/04 10:01:18;;;;;;;3.27;1.98;;;;;;;13.61;41.35;99355.80;1841857;78;21154;-71
2021/05/04 10:03:47;;;;;;;6.12;1.90;;;;;;;13.81;39.38;99356.31;1841637;78;20869;-70
2021/05/04 10:06:19;;;;;;;3.22;1.70;;;;;;;14.01;40.65;99355.97;1841656;78;20936;-70
2021/05/04 10:08:48;;;;;;;;;;;;;;;14.23;39.44;99364.97;1844399;78;21249;-71
2021/05/04 10:11:21;;;;;;;3.30;1.92;;;;;;;14.38;38.98;99362.91;1841569;78;20146;-71
2021/05/04 10:13:55;;;;;;;3.67;1.57;;;;;;;14.56;38.39;99356.00;1841647;78;21039;-70
2021/05/04 10:16:26;;;;;;;4.33;2.08;;;;;;;14.45;38.57;99365.90;1822111;77;20995;-70
2021/05/04 10:19:03;;;;;;;1.90;1.70;;;;;;;14.30;37.66;99361.87;1808902;78;20936;-70
2021/05/04 10:21:31;;;;;;;3.17;1.67;;;;;;;13.83;37.56;99371.95;1808624;79;21186;-70
2021/05/04 10:24:00;;;;;;;4.05;2.15;;;;;;;13.47;39.59;99363.55;1813089;79;21526;-70
2021/05/04 10:26:30;;;;;;;4.60;2.22;;;;;;;13.34;39.00;99377.05;1814288;79;21466;-70
2021/05/04 10:29:05;;;;;;;4.50;2.00;;;;;;;13.04;39.63;99377.13;1814282;79;20920;-70
2021/05/04 10:31:40;;;;;;;3.65;2.15;;;;;;;12.99;39.67;99364.93;1814407;79;21404;-69
2021/05/04 10:34:28;;;;;;;2.02;1.52;;;;;;;13.26;39.91;99369.70;1814041;79;21344;-70
2021/05/04 10:36:59;;;;;;;3.50;2.05;;;;;;;13.54;39.16;99356.92;1813753;79;20955;-69
2021/05/04 10:39:41;;;;;;;1.62;1.50;;;;;;;13.91;37.91;99362.50;1814105;79;21475;-70
2021/05/04 10:42:14;;;;;;;4.83;1.95;;;;;;;14.14;37.91;99357.59;1813723;79;21486;-70
2021/05/04 10:44:58;;;;;;;2.30;1.72;;;;;;;14.34;37.33;99373.84;1813858;79;21101;-70
2021/05/04 10:47:46;;;;;;;7.33;3.12;;;;;;;14.33;37.99;99370.03;1811139;79;21368;-70
2021/05/04 10:50:23;;;;;;;4.58;1.95;;;;;;;14.62;38.99;99358.75;1813685;79;20952;-70
2021/05/04 10:52:58;;;;;;;2.65;1.72;;;;;;;15.22;37.98;99365.86;1810297;79;20955;-70
2021/05/04 10:55:47;;;;;;;2.80;2.12;;;;;;;15.60;36.00;99358.48;1813692;79;21022;-71
2021/05/04 10:58:16;;;;;;;2.20;1.50;;;;;;;15.45;34.78;99351.72;1805789;79;21503;-71
2021/05/04 11:00:53;;;;;;;7.25;2.33;;;;;;;14.99;35.63;99353.97;1813821;79;22394;-70
2021/05/04 11:03:35;;;;;;;7.00;1.70;;;;;;;14.49;36.41;99355.77;1813622;79;20983;-69
2021/05/04 11:06:11;;;;;;;7.75;2.52;;;;;;;14.05;36.99;99358.28;1813715;78;20892;-70
2021/05/04 11:08:47;;;;;;;2.22;1.67;;;;;;;13.78;38.34;99355.61;1813682;79;21557;-71
2021/05/04 11:11:32;;;;;;;2.90;1.85;;;;;;;13.89;38.41;99358.13;1813745;79;20880;-69
2021/05/04 11:14:16;;;;;;;3.47;1.98;;;;;;;14.17;39.58;99336.20;1813641;78;21422;-69
2021/05/04 11:16:57;;;;;;;3.00;1.62;;;;;;;14.56;37.27;99347.70;1813067;77;21011;-72
2021/05/04 11:19:30;;;;;;;2.83;1.90;;;;;;;14.75;35.23;99340.20;1812662;78;21085;-72
2021/05/04 11:22:05;;;;;;;4.70;1.60;;;;;;;14.60;35.69;99337.58;1811903;79;20932;-71
2021/05/04 11:24:39;;;;;;;2.37;1.70;;;;;;;14.67;36.92;99319.03;1806505;79;20992;-71
2021/05/04 11:27:12;;;;;;;2.17;1.47;;;;;;;14.94;35.84;99344.55;1806354;78;21351;-70
2021/05/04 11:29:41;;;;;;;1.75;1.22;;;;;;;15.28;36.42;99338.19;1806248;79;21547;-69
2021/05/04 11:32:26;;;;;;;2.10;1.40;;;;;;;15.72;33.70;99337.63;1806206;79;21040;-71
2021/05/04 11:34:59;;;;;;;2.90;1.40;;;;;;;15.91;32.76;99334.98;1804010;79;20896;-70
2021/05/04 11:37:38;;;;;;;1.50;1.40;;;;;;;15.50;33.15;99336.25;1802831;79;20907;-70
2021/05/04 11:40:20;;;;;;;1.98;1.30;;;;;;;14.90;33.80;99332.58;1797246;79;22016;-70
2021/05/04 11:42:52;;;;;;;4.50;2.08;;;;;;;14.44;35.49;99340.23;1797086;79;20942;-71
2021/05/04 11:45:31;;;;;;;4.15;1.95;;;;;;;14.51;37.10;99332.75;1797132;79;21017;-71
2021/05/04 11:48:07;;;;;;;5.67;1.50;;;;;;;14.89;35.46;99335.69;1797359;79;21574;-71
2021/05/04 11:50:38;;;;;;;4.30;1.30;;;;;;;15.19;33.62;99326.70;1797280;79;20882;-71
2021/05/04 11:53:15;;;;;;;2.87;1.10;;;;;;;15.30;33.57;99325.62;1797237;79;21184;-71
2021/05/04 11:55:48;;;;;;;1.80;1.45;;;;;;;15.61;34.02;99322.13;1797065;79;20990;-71
2021/05/04 11:58:21;;;;;;;5.90;1.60;;;;;;;15.87;32.01;99327.16;1797246;79;21056;-71
2021/05/04 12:00:57;;;;;;;2.62;1.30;;;;;;;15.95;32.68;99331.72;1805542;78;21474;-71